createdAt,value
2022-11-18T00:03:23.550Z,4.03
2022-11-18T00:08:47.127Z,3.24
2022-11-18T00:14:10.032Z,2.82
2022-11-18T00:19:36.531Z,1.69
2022-11-18T00:25:03.499Z,2.66
2022-11-18T00:30:28.195Z,1.96
2022-11-18T00:35:52.771Z,3.40
2022-11-18T00:41:15.527Z,4.28
2022-11-18T00:46:42.127Z,3.15
2022-11-18T00:52:09.283Z,2.47
2022-11-18T00:57:34.204Z,2.20
2022-11-18T01:02:59.786Z,3.97
2022-11-18T01:08:22.059Z,2.04
2022-11-18T01:13:47.055Z,2.73
2022-11-18T01:19:10.373Z,2.04
2022-11-18T01:24:37.573Z,3.00
2022-11-18T01:30:03.034Z,2.49
2022-11-18T01:35:34.709Z,2.26
2022-11-18T01:41:01.251Z,2.95
2022-11-18T01:46:26.508Z,3.70
2022-11-18T01:51:52.439Z,1.55
2022-11-18T01:57:18.387Z,2.81
2022-11-18T02:02:42.662Z,2.72
2022-11-18T02:08:04.523Z,2.49
2022-11-18T02:13:27.006Z,2.99
2022-11-18T02:18:53.458Z,2.18
2022-11-18T02:24:17.478Z,3.40
2022-11-18T02:29:56.095Z,3.25
2022-11-18T02:35:22.831Z,4.89
2022-11-18T02:40:46.936Z,4.83
2022-11-18T02:46:11.038Z,5.99
2022-11-18T02:51:37.585Z,6.13
2022-11-18T02:57:04.319Z,4.17
2022-11-18T03:02:30.098Z,5.86
2022-11-18T03:07:57.502Z,5.69
2022-11-18T03:13:21.238Z,3.93
2022-11-18T03:18:46.103Z,4.91
2022-11-18T03:24:13.307Z,6.21
2022-11-18T03:29:39.478Z,6.70
2022-11-18T03:35:03.719Z,6.74
2022-11-18T03:40:30.016Z,4.08
2022-11-18T03:45:53.435Z,5.14
2022-11-18T03:51:16.511Z,3.52
2022-11-18T03:56:43.746Z,4.23
2022-11-18T04:02:10.601Z,5.04
2022-11-18T04:07:33.791Z,3.83
2022-11-18T04:12:58.598Z,5.40
2022-11-18T04:18:23.714Z,6.84
2022-11-18T04:23:47.049Z,5.14
2022-11-18T04:29:14.087Z,5.66
2022-11-18T04:34:39.124Z,4.62
2022-11-18T04:40:05.991Z,4.89
2022-11-18T04:45:34.475Z,6.54
2022-11-18T04:50:59.639Z,7.29
2022-11-18T04:56:26.589Z,7.35
2022-11-18T05:01:48.254Z,5.49
2022-11-18T05:07:15.706Z,7.19
2022-11-18T05:12:41.420Z,7.30
2022-11-18T05:18:07.628Z,6.74
2022-11-18T05:23:34.952Z,6.93
2022-11-18T05:29:02.281Z,10.28
2022-11-18T05:34:29.056Z,10.64
2022-11-18T05:39:55.347Z,9.73
2022-11-18T05:45:20.142Z,9.98
2022-11-18T05:50:47.232Z,9.44
2022-11-18T05:56:08.937Z,9.54
2022-11-18T06:01:31.269Z,4.91
2022-11-18T06:06:55.035Z,5.00
2022-11-18T06:12:21.559Z,4.22
2022-11-18T06:17:47.603Z,2.72
2022-11-18T06:23:13.520Z,4.54
2022-11-18T06:28:38.435Z,3.62
2022-11-18T06:33:59.786Z,2.65
2022-11-18T06:39:25.402Z,4.07
2022-11-18T06:44:50.497Z,2.55
2022-11-18T06:50:15.345Z,3.00
2022-11-18T06:55:36.812Z,2.00
2022-11-18T07:01:04.362Z,2.20
2022-11-18T07:06:33.894Z,3.11
2022-11-18T07:11:57.766Z,3.34
2022-11-18T07:17:20.300Z,1.69
2022-11-18T07:22:42.077Z,1.75
2022-11-18T07:28:04.616Z,2.09
2022-11-18T07:33:29.924Z,2.01
2022-11-18T07:38:51.006Z,2.20
2022-11-18T07:44:13.453Z,1.81
2022-11-18T07:49:36.363Z,1.61
2022-11-18T07:55:00.054Z,2.05
2022-11-18T08:00:22.996Z,1.23
2022-11-18T08:05:44.301Z,0.82
2022-11-18T08:11:05.925Z,1.76
2022-11-18T08:16:27.016Z,1.36
2022-11-18T08:21:48.253Z,1.12
2022-11-18T08:27:10.134Z,2.35
2022-11-18T08:32:31.562Z,1.37
2022-11-18T08:37:52.861Z,1.65
2022-11-18T08:43:14.014Z,1.73
2022-11-18T08:48:35.127Z,1.27
2022-11-18T08:54:00.189Z,3.97
2022-11-18T08:59:20.859Z,2.32
2022-11-18T09:04:42.536Z,0.96
2022-11-18T09:10:10.001Z,1.89
2022-11-18T09:15:37.737Z,1.99
2022-11-18T09:21:04.503Z,2.04
2022-11-18T09:26:25.994Z,3.67
2022-11-18T09:31:50.128Z,3.71
2022-11-18T09:37:15.386Z,3.46
2022-11-18T09:42:42.056Z,3.90
2022-11-18T09:48:12.663Z,3.84
2022-11-18T09:53:40.471Z,5.60
2022-11-18T09:59:07.604Z,4.85
2022-11-18T10:04:34.201Z,5.13
2022-11-18T10:09:59.519Z,3.67
2022-11-18T10:15:24.068Z,3.18
2022-11-18T10:20:48.477Z,4.89
2022-11-18T10:26:15.602Z,4.37
2022-11-18T10:31:49.298Z,4.96
2022-11-18T10:37:14.667Z,5.42
2022-11-18T10:42:47.115Z,5.71
2022-11-18T10:48:12.211Z,4.08
2022-11-18T10:53:35.569Z,5.30
2022-11-18T10:59:01.278Z,6.21
2022-11-18T11:04:29.518Z,4.65
2022-11-18T11:09:52.971Z,3.67
2022-11-18T11:15:20.955Z,4.50
2022-11-18T11:20:46.772Z,3.99
2022-11-18T11:31:32.250Z,3.72
2022-11-18T11:36:59.411Z,3.64
2022-11-18T11:42:24.109Z,5.43
2022-11-18T11:47:50.778Z,5.29
2022-11-18T11:53:18.078Z,5.28
2022-11-18T11:58:45.175Z,4.40
2022-11-18T12:04:28.955Z,4.63
2022-11-18T12:09:58.601Z,3.59
2022-11-18T12:15:36.831Z,5.38
2022-11-18T12:21:04.102Z,6.43
2022-11-18T12:26:28.664Z,4.73
2022-11-18T12:31:51.633Z,5.06
2022-11-18T12:37:16.629Z,3.69
2022-11-18T12:43:03.418Z,4.20
2022-11-18T12:48:46.259Z,4.56
2022-11-18T12:54:13.727Z,4.44
2022-11-18T12:59:40.259Z,5.28
2022-11-18T13:05:05.521Z,3.01
2022-11-18T13:10:29.598Z,4.03
2022-11-18T13:15:56.863Z,3.66
2022-11-18T13:21:23.400Z,3.76
2022-11-18T13:26:46.282Z,2.37
2022-11-18T13:32:11.925Z,2.35
2022-11-18T13:37:37.331Z,1.26
2022-11-18T13:43:05.860Z,1.64
2022-11-18T13:48:33.197Z,1.54
2022-11-18T13:53:58.919Z,2.40
2022-11-18T13:59:26.320Z,1.38
2022-11-18T14:04:51.129Z,2.97
2022-11-18T14:10:16.372Z,1.22
2022-11-18T14:15:48.872Z,1.28
2022-11-18T14:21:13.979Z,2.46
2022-11-18T14:26:44.190Z,1.52
2022-11-18T14:32:11.819Z,1.47
2022-11-18T14:37:37.892Z,1.00
2022-11-18T14:43:03.335Z,1.70
2022-11-18T14:48:32.259Z,2.52
2022-11-18T14:53:55.213Z,2.80
2022-11-18T14:59:21.833Z,1.42
2022-11-18T15:04:45.210Z,2.02
2022-11-18T15:10:12.379Z,1.84
2022-11-18T15:15:39.609Z,1.58
2022-11-18T15:21:07.257Z,2.61
2022-11-18T15:26:31.564Z,1.38
2022-11-18T15:31:57.496Z,2.46
2022-11-18T15:37:23.941Z,2.44
2022-11-18T15:42:51.858Z,3.31
2022-11-18T15:48:13.877Z,3.05
2022-11-18T15:53:39.475Z,3.17
2022-11-18T15:59:07.273Z,2.49
2022-11-18T16:04:33.007Z,3.79
2022-11-18T16:09:58.898Z,4.32
2022-11-18T16:15:25.166Z,3.74
2022-11-18T16:20:48.270Z,4.23
2022-11-18T16:26:17.396Z,3.70
2022-11-18T16:31:37.908Z,4.29
2022-11-18T16:37:03.390Z,4.66
2022-11-18T16:42:25.827Z,2.47
2022-11-18T16:47:53.431Z,5.38
2022-11-18T16:53:20.263Z,4.88
2022-11-18T16:58:47.452Z,7.93
2022-11-18T17:04:17.413Z,6.09
2022-11-18T17:09:41.747Z,6.05
2022-11-18T17:15:09.060Z,5.50
2022-11-18T17:20:37.682Z,2.81
2022-11-18T17:26:03.198Z,3.86
2022-11-18T17:31:26.650Z,2.31
2022-11-18T17:36:54.029Z,3.67
2022-11-18T17:42:21.266Z,12.75
2022-11-18T17:47:47.976Z,10.09
2022-11-18T17:53:09.364Z,7.91
2022-11-18T17:58:36.979Z,8.93
2022-11-18T18:04:01.115Z,6.51
2022-11-18T18:09:28.554Z,9.29
2022-11-18T18:14:44.456Z,12.08
2022-11-18T18:20:05.170Z,8.18
2022-11-18T18:25:27.462Z,11.23
2022-11-18T18:30:48.948Z,8.57
2022-11-18T18:36:19.634Z,7.41
2022-11-18T18:41:41.323Z,6.96
2022-11-18T18:47:09.400Z,6.77
2022-11-18T18:52:34.039Z,6.23
2022-11-18T18:57:57.217Z,7.09
2022-11-18T19:03:22.640Z,7.98
2022-11-18T19:08:48.795Z,7.00
2022-11-18T19:14:15.063Z,7.02
2022-11-18T19:19:41.781Z,5.11
2022-11-18T19:25:08.129Z,5.76
2022-11-18T19:30:46.458Z,4.00
2022-11-18T19:36:11.156Z,4.78
2022-11-18T19:41:35.991Z,4.07
2022-11-18T19:47:06.122Z,4.13
2022-11-18T19:52:32.732Z,5.82
2022-11-18T19:58:01.824Z,6.61
2022-11-18T20:03:29.547Z,2.85
2022-11-18T20:08:55.524Z,4.01
2022-11-18T20:14:21.646Z,3.07
2022-11-18T20:19:45.619Z,8.80
2022-11-18T20:25:09.117Z,5.01
2022-11-18T20:30:35.144Z,4.36
2022-11-18T20:36:58.244Z,5.54
2022-11-18T20:42:24.602Z,8.68
2022-11-18T20:47:51.449Z,6.12
2022-11-18T20:53:16.833Z,5.25
2022-11-18T20:58:43.314Z,4.49
2022-11-18T21:04:08.723Z,4.12
2022-11-18T21:09:34.599Z,3.48
2022-11-18T21:15:01.965Z,4.49
2022-11-18T21:20:29.124Z,2.71
2022-11-18T21:25:56.653Z,2.68
2022-11-18T21:31:23.333Z,3.32
2022-11-18T21:36:49.175Z,3.35
2022-11-18T21:42:13.753Z,2.28
2022-11-18T21:47:38.395Z,3.09
2022-11-18T21:53:02.972Z,3.64
2022-11-18T21:58:28.639Z,3.32
2022-11-18T22:03:55.264Z,6.93
2022-11-18T22:09:22.795Z,7.14
2022-11-18T22:14:45.288Z,7.36
2022-11-18T22:20:08.741Z,6.40
2022-11-18T22:25:31.490Z,5.07
2022-11-18T22:30:57.817Z,5.92
2022-11-18T22:36:26.582Z,4.52
2022-11-18T22:41:49.594Z,5.81
2022-11-18T22:47:18.082Z,5.31
2022-11-18T22:52:42.706Z,10.31
2022-11-18T22:58:13.297Z,8.17
2022-11-18T23:03:43.737Z,5.14
2022-11-18T23:09:10.629Z,4.38
2022-11-18T23:14:38.879Z,4.65
2022-11-18T23:20:05.656Z,3.63
2022-11-18T23:25:34.175Z,4.98
2022-11-18T23:30:59.804Z,9.51
2022-11-18T23:36:31.411Z,8.76
2022-11-18T23:41:57.674Z,6.07
2022-11-18T23:47:21.034Z,6.88
2022-11-18T23:52:51.063Z,8.45
2022-11-18T23:58:18.155Z,8.64
